createdAt,value
2022-09-12T00:01:31.493Z,20.67
2022-09-12T00:04:02.039Z,20.70
2022-09-12T00:06:32.097Z,20.74
2022-09-12T00:09:03.830Z,20.78
2022-09-12T00:11:33.516Z,20.81
2022-09-12T00:14:03.029Z,20.83
2022-09-12T00:16:33.548Z,20.81
2022-09-12T00:19:02.392Z,20.80
2022-09-12T00:21:30.697Z,20.85
2022-09-12T00:23:59.109Z,20.87
2022-09-12T00:26:27.625Z,20.86
2022-09-12T00:28:57.412Z,20.87
2022-09-12T00:31:27.873Z,20.83
2022-09-12T00:33:58.362Z,20.81
2022-09-12T00:36:28.101Z,20.80
2022-09-12T00:38:56.529Z,20.79
2022-09-12T00:41:27.025Z,20.79
2022-09-12T00:43:59.818Z,20.84
2022-09-12T00:46:35.673Z,20.84
2022-09-12T00:49:07.969Z,20.86
2022-09-12T00:51:38.763Z,20.86
2022-09-12T00:54:10.954Z,20.87
2022-09-12T00:56:42.985Z,20.72
2022-09-12T00:59:18.077Z,20.85
2022-09-12T01:01:49.684Z,20.90
2022-09-12T01:04:19.417Z,20.91
2022-09-12T01:06:49.024Z,20.93
2022-09-12T01:09:20.423Z,20.91
2022-09-12T01:11:50.025Z,20.89
2022-09-12T01:14:20.704Z,20.93
2022-09-12T01:16:51.174Z,20.87
2022-09-12T01:19:47.274Z,20.85
2022-09-12T01:22:29.862Z,20.89
2022-09-12T01:25:07.799Z,20.94
2022-09-12T01:27:49.141Z,20.90
2022-09-12T01:30:46.428Z,20.85
2022-09-12T01:33:37.224Z,20.84
2022-09-12T01:36:35.178Z,20.86
2022-09-12T01:39:06.290Z,20.81
2022-09-12T01:41:46.985Z,20.84
2022-09-12T01:44:24.361Z,20.81
2022-09-12T01:46:58.439Z,20.82
2022-09-12T01:49:30.781Z,20.80
2022-09-12T01:52:04.646Z,20.77
2022-09-12T01:54:40.464Z,20.78
2022-09-12T01:57:14.617Z,20.76
2022-09-12T01:59:48.416Z,20.77
2022-09-12T02:02:24.212Z,20.74
2022-09-12T02:04:59.569Z,20.70
2022-09-12T02:07:35.917Z,20.62
2022-09-12T02:10:12.263Z,20.58
2022-09-12T02:12:45.741Z,20.60
2022-09-12T02:15:16.537Z,20.57
2022-09-12T02:17:50.713Z,20.54
2022-09-12T02:20:46.341Z,20.47
2022-09-12T02:23:13.932Z,20.48
2022-09-12T02:25:45.831Z,20.48
2022-09-12T02:28:18.256Z,20.52
2022-09-12T02:30:54.188Z,20.52
2022-09-12T02:33:27.780Z,20.49
2022-09-12T02:35:59.877Z,20.45
2022-09-12T02:38:33.625Z,20.42
2022-09-12T02:41:02.203Z,20.39
2022-09-12T02:43:30.402Z,20.36
2022-09-12T02:45:58.866Z,20.33
2022-09-12T02:48:32.890Z,20.27
2022-09-12T02:51:01.847Z,20.24
2022-09-12T02:53:30.306Z,20.21
2022-09-12T02:55:58.984Z,20.23
2022-09-12T02:58:31.601Z,20.21
2022-09-12T03:01:07.491Z,20.16
2022-09-12T03:04:01.526Z,20.10
2022-09-12T03:06:37.385Z,20.11
2022-09-12T03:09:14.131Z,20.10
2022-09-12T03:12:02.581Z,20.05
2022-09-12T03:14:53.266Z,20.04
2022-09-12T03:17:32.423Z,20.01
2022-09-12T03:20:09.437Z,20.02
2022-09-12T03:22:51.210Z,20.02
2022-09-12T03:25:23.465Z,20.03
2022-09-12T03:27:59.822Z,19.97
2022-09-12T03:30:28.895Z,20.05
2022-09-12T03:32:57.131Z,20.06
2022-09-12T03:35:27.040Z,20.07
2022-09-12T03:37:55.352Z,20.06
2022-09-12T03:40:23.588Z,20.06
2022-09-12T03:42:51.846Z,20.08
2022-09-12T03:45:20.149Z,20.03
2022-09-12T03:47:48.401Z,20.01
2022-09-12T03:50:17.231Z,20.04
2022-09-12T03:52:47.711Z,20.01
2022-09-12T03:55:16.572Z,20.03
2022-09-12T03:57:44.845Z,20.01
2022-09-12T04:00:19.079Z,20.02
2022-09-12T04:02:48.367Z,20.02
2022-09-12T04:05:16.644Z,19.99
2022-09-12T04:07:44.906Z,19.98
2022-09-12T04:10:16.167Z,20.02
2022-09-12T04:12:44.866Z,19.96
2022-09-12T04:15:13.104Z,19.99
2022-09-12T04:17:41.439Z,19.90
2022-09-12T04:20:10.207Z,19.98
2022-09-12T04:22:38.739Z,19.99
2022-09-12T04:25:08.121Z,19.99
2022-09-12T04:27:38.029Z,19.94
2022-09-12T04:30:07.604Z,19.93
2022-09-12T04:32:35.924Z,19.91
2022-09-12T04:35:04.479Z,19.89
2022-09-12T04:37:32.860Z,19.88
2022-09-12T04:40:01.661Z,19.81
2022-09-12T04:42:31.188Z,19.78
2022-09-12T04:45:00.928Z,19.79
2022-09-12T04:47:29.996Z,19.80
2022-09-12T04:49:58.221Z,19.78
2022-09-12T04:52:26.639Z,19.83
2022-09-12T04:54:54.903Z,19.79
2022-09-12T04:57:23.243Z,19.86
2022-09-12T04:59:51.483Z,19.82
2022-09-12T05:02:21.502Z,19.85
2022-09-12T05:04:49.911Z,19.85
2022-09-12T05:07:19.062Z,19.82
2022-09-12T05:09:47.287Z,19.75
2022-09-12T05:12:15.475Z,19.78
2022-09-12T05:14:43.682Z,19.74
2022-09-12T05:17:11.844Z,19.77
2022-09-12T05:19:41.504Z,19.73
2022-09-12T05:22:09.854Z,19.73
2022-09-12T05:24:39.476Z,19.71
2022-09-12T05:27:07.749Z,19.69
2022-09-12T05:29:36.078Z,19.67
2022-09-12T05:32:04.401Z,19.69
2022-09-12T05:34:32.656Z,19.66
2022-09-12T05:37:02.299Z,19.62
2022-09-12T05:39:30.538Z,19.57
2022-09-12T05:41:58.742Z,19.60
2022-09-12T05:44:26.979Z,19.57
2022-09-12T05:46:55.196Z,19.62
2022-09-12T05:49:23.483Z,19.57
2022-09-12T05:51:52.056Z,19.62
2022-09-12T05:54:22.905Z,19.63
2022-09-12T05:56:51.168Z,19.68
2022-09-12T05:59:21.370Z,19.68
2022-09-12T06:01:49.833Z,19.69
2022-09-12T06:04:18.283Z,19.71
2022-09-12T06:06:48.850Z,19.77
2022-09-12T06:09:18.481Z,19.80
2022-09-12T06:11:48.150Z,19.86
2022-09-12T06:14:19.670Z,19.95
2022-09-12T06:16:48.768Z,19.96
2022-09-12T06:19:19.277Z,20.10
2022-09-12T06:21:49.617Z,20.18
2022-09-12T06:24:18.240Z,20.21
2022-09-12T06:26:48.666Z,20.24
2022-09-12T06:29:17.358Z,20.23
2022-09-12T06:31:48.451Z,20.20
2022-09-12T06:34:17.581Z,20.28
2022-09-12T06:36:47.233Z,20.35
2022-09-12T06:39:17.467Z,20.46
2022-09-12T06:41:48.440Z,20.65
2022-09-12T06:44:19.450Z,20.97
2022-09-12T06:46:47.979Z,21.53
2022-09-12T06:49:17.655Z,21.95
2022-09-12T06:51:46.204Z,21.99
2022-09-12T06:54:16.955Z,21.95
2022-09-12T06:56:45.976Z,21.92
2022-09-12T06:59:15.886Z,21.82
2022-09-12T07:01:44.517Z,21.71
2022-09-12T07:04:12.813Z,21.67
2022-09-12T07:06:42.975Z,21.61
2022-09-12T07:09:13.348Z,21.54
2022-09-12T07:11:43.161Z,21.47
2022-09-12T07:14:14.031Z,21.48
2022-09-12T07:16:45.274Z,21.46
2022-09-12T07:19:13.750Z,21.50
2022-09-12T07:21:42.221Z,21.54
2022-09-12T07:24:11.301Z,21.56
2022-09-12T07:26:42.224Z,21.54
2022-09-12T07:29:35.944Z,21.51
2022-09-12T07:32:06.196Z,21.50
2022-09-12T07:34:35.423Z,21.51
2022-09-12T07:37:03.585Z,21.59
2022-09-12T07:39:32.478Z,21.68
2022-09-12T07:42:01.061Z,21.71
2022-09-12T07:44:29.486Z,21.67
2022-09-12T07:46:57.937Z,21.58
2022-09-12T07:49:27.616Z,21.55
2022-09-12T07:51:56.094Z,21.55
2022-09-12T07:54:24.670Z,21.61
2022-09-12T07:56:52.907Z,21.63
2022-09-12T07:59:48.476Z,21.82
2022-09-12T08:02:17.045Z,21.95
2022-09-12T08:04:49.222Z,22.02
2022-09-12T08:07:18.459Z,22.13
2022-09-12T08:09:47.440Z,22.27
2022-09-12T08:12:16.351Z,22.31
2022-09-12T08:14:44.630Z,22.32
2022-09-12T08:17:12.900Z,22.46
2022-09-12T08:19:41.078Z,22.57
2022-09-12T08:22:10.684Z,22.65
2022-09-12T08:24:40.542Z,22.62
2022-09-12T08:27:09.305Z,22.58
2022-09-12T08:29:38.074Z,22.50
2022-09-12T08:32:06.535Z,22.45
2022-09-12T08:34:34.595Z,22.32
2022-09-12T08:37:03.214Z,22.20
2022-09-12T08:39:33.911Z,22.21
2022-09-12T08:42:04.246Z,22.10
2022-09-12T08:45:03.791Z,21.89
2022-09-12T08:47:35.832Z,21.91
2022-09-12T08:50:13.350Z,21.93
2022-09-12T08:52:48.487Z,22.16
2022-09-12T08:55:35.625Z,22.28
2022-09-12T08:58:14.074Z,22.52
2022-09-12T09:00:50.716Z,22.60
2022-09-12T09:03:49.097Z,22.77
2022-09-12T09:06:44.232Z,22.94
2022-09-12T09:09:21.001Z,23.11
2022-09-12T09:12:01.005Z,23.24
2022-09-12T09:15:12.281Z,23.25
2022-09-12T09:17:44.026Z,23.48
2022-09-12T09:20:30.882Z,23.56
2022-09-12T09:23:06.435Z,23.90
2022-09-12T09:25:44.129Z,24.21
2022-09-12T09:28:19.255Z,24.44
2022-09-12T09:30:48.596Z,24.75
2022-09-12T09:33:22.701Z,25.29
2022-09-12T09:36:00.471Z,25.55
2022-09-12T09:38:43.077Z,25.67
2022-09-12T09:41:28.214Z,25.76
2022-09-12T09:43:58.558Z,25.78
2022-09-12T09:46:28.545Z,25.85
2022-09-12T09:49:04.230Z,26.00
2022-09-12T09:51:37.496Z,26.28
2022-09-12T09:54:17.327Z,26.38
2022-09-12T09:56:46.636Z,26.47
2022-09-12T09:59:18.801Z,26.54
2022-09-12T10:01:51.232Z,26.61
2022-09-12T10:04:21.737Z,26.85
2022-09-12T10:06:53.160Z,26.93
2022-09-12T10:09:25.071Z,26.73
2022-09-12T10:11:55.590Z,27.00
2022-09-12T10:14:35.172Z,27.57
2022-09-12T10:17:05.541Z,28.09
2022-09-12T10:19:38.963Z,27.91
2022-09-12T10:22:13.949Z,27.96
2022-09-12T10:24:43.724Z,27.95
2022-09-12T10:27:18.940Z,28.37
2022-09-12T10:29:52.232Z,28.92
2022-09-12T10:32:30.510Z,29.30
2022-09-12T10:35:01.815Z,29.64
2022-09-12T10:37:33.725Z,29.86
2022-09-12T10:40:04.040Z,30.15
2022-09-12T10:42:48.485Z,30.28
2022-09-12T10:45:27.392Z,29.94
2022-09-12T10:47:58.506Z,29.73
2022-09-12T10:50:30.085Z,29.60
2022-09-12T10:53:14.097Z,29.32
2022-09-12T10:55:51.945Z,29.45
2022-09-12T10:58:36.779Z,29.63
2022-09-12T11:01:18.197Z,29.82
2022-09-12T11:04:05.805Z,29.99
2022-09-12T11:06:41.910Z,30.14
2022-09-12T11:09:20.485Z,30.15
2022-09-12T11:12:02.468Z,30.16
2022-09-12T11:14:51.618Z,30.12
2022-09-12T11:17:33.839Z,30.12
2022-09-12T11:20:30.371Z,29.98
2022-09-12T11:23:17.056Z,29.97
2022-09-12T11:25:51.314Z,30.02
2022-09-12T11:28:31.986Z,29.97
2022-09-12T11:31:20.538Z,29.92
2022-09-12T11:33:56.472Z,29.86
2022-09-12T11:36:34.359Z,29.59
2022-09-12T11:39:13.363Z,29.51
2022-09-12T11:41:44.441Z,29.42
2022-09-12T11:44:20.524Z,29.33
2022-09-12T11:46:52.113Z,29.32
2022-09-12T11:49:28.561Z,29.27
2022-09-12T11:52:02.333Z,29.20
2022-09-12T11:54:37.359Z,29.21
2022-09-12T11:57:14.916Z,29.34
2022-09-12T11:59:50.722Z,29.45
2022-09-12T12:02:26.668Z,29.79
2022-09-12T12:05:18.980Z,29.82
2022-09-12T12:07:53.870Z,29.91
2022-09-12T12:10:28.779Z,30.10
2022-09-12T12:12:59.345Z,30.17
2022-09-12T12:15:29.197Z,30.38
2022-09-12T12:18:10.779Z,30.51
2022-09-12T12:20:42.364Z,30.64
2022-09-12T12:23:23.191Z,30.54
2022-09-12T12:25:56.183Z,30.69
2022-09-12T12:29:01.773Z,30.44
2022-09-12T12:31:29.996Z,30.36
2022-09-12T12:34:22.022Z,30.20
2022-09-12T12:36:51.785Z,30.18
2022-09-12T12:40:01.090Z,30.16
2022-09-12T12:43:05.048Z,30.20
2022-09-12T12:46:03.627Z,30.20
2022-09-12T12:48:47.749Z,30.25
2022-09-12T12:51:36.661Z,30.27
2022-09-12T12:54:28.150Z,30.23
2022-09-12T12:57:06.329Z,30.20
2022-09-12T12:59:35.406Z,30.18
2022-09-12T13:02:05.663Z,29.88
2022-09-12T13:04:35.151Z,29.88
2022-09-12T13:07:08.447Z,29.82
2022-09-12T13:09:46.999Z,29.79
2022-09-12T13:12:22.789Z,29.63
2022-09-12T13:14:54.783Z,29.64
2022-09-12T13:17:39.596Z,29.69
2022-09-12T13:20:28.330Z,29.66
2022-09-12T13:22:58.093Z,29.51
2022-09-12T13:25:31.209Z,29.00
2022-09-12T13:28:06.613Z,28.81
2022-09-12T13:30:36.937Z,28.70
2022-09-12T13:33:22.373Z,28.58
2022-09-12T13:36:16.840Z,28.38
2022-09-12T13:38:58.656Z,28.05
2022-09-12T13:41:46.955Z,27.82
2022-09-12T13:44:19.410Z,27.61
2022-09-12T13:46:48.781Z,27.43
2022-09-12T13:49:23.371Z,27.19
2022-09-12T13:52:01.154Z,27.00
2022-09-12T13:54:30.633Z,26.99
2022-09-12T13:57:00.711Z,27.01
2022-09-12T13:59:29.153Z,27.05
2022-09-12T14:01:57.420Z,27.06
2022-09-12T14:04:46.943Z,27.12
2022-09-12T14:07:20.395Z,27.21
2022-09-12T14:09:56.322Z,27.36
2022-09-12T14:12:30.341Z,27.60
2022-09-12T14:14:59.077Z,27.77
2022-09-12T14:17:33.735Z,27.91
2022-09-12T14:20:04.167Z,28.01
2022-09-12T14:22:34.265Z,27.96
2022-09-12T14:25:03.512Z,27.82
2022-09-12T14:27:43.249Z,27.47
2022-09-12T14:30:23.286Z,26.78
2022-09-12T14:33:19.699Z,26.63
2022-09-12T14:35:49.776Z,26.69
2022-09-12T14:38:30.116Z,26.84
2022-09-12T14:41:02.338Z,26.92
2022-09-12T14:43:33.663Z,27.07
2022-09-12T14:46:05.721Z,27.28
2022-09-12T14:48:37.639Z,27.56
2022-09-12T14:51:06.613Z,27.60
2022-09-12T14:53:36.959Z,27.88
2022-09-12T14:56:13.242Z,28.01
2022-09-12T14:58:44.354Z,28.14
2022-09-12T15:01:27.769Z,28.17
2022-09-12T15:03:58.115Z,28.31
2022-09-12T15:06:29.717Z,28.42
2022-09-12T15:09:00.782Z,28.60
2022-09-12T15:11:29.383Z,28.80
2022-09-12T15:13:59.088Z,28.97
2022-09-12T15:16:30.417Z,28.90
2022-09-12T15:19:01.481Z,28.85
2022-09-12T15:21:32.935Z,28.91
2022-09-12T15:24:01.311Z,28.90
2022-09-12T15:26:33.380Z,28.93
2022-09-12T15:29:03.551Z,28.88
2022-09-12T15:31:35.479Z,28.72
2022-09-12T15:34:09.385Z,28.58
2022-09-12T15:36:55.607Z,28.50
2022-09-12T15:40:21.782Z,28.51
2022-09-12T15:43:55.465Z,28.55
2022-09-12T15:48:06.991Z,28.65
2022-09-12T15:50:48.638Z,28.68
2022-09-12T15:53:40.218Z,28.76
2022-09-12T15:56:13.941Z,28.76
2022-09-12T15:59:24.252Z,28.73
2022-09-12T16:02:33.485Z,28.65
2022-09-12T16:05:38.197Z,28.68
2022-09-12T16:08:16.916Z,28.71
2022-09-12T16:12:36.491Z,28.88
2022-09-12T16:13:47.252Z,29.10
2022-09-12T16:16:55.999Z,29.22
2022-09-12T16:19:28.480Z,29.22
2022-09-12T16:22:08.640Z,29.19
2022-09-12T16:24:40.921Z,29.12
2022-09-12T16:27:16.519Z,28.93
2022-09-12T16:30:25.021Z,28.75
2022-09-12T16:33:33.932Z,28.63
2022-09-12T16:50:46.625Z,28.08
2022-09-12T18:49:56.576Z,24.90
2022-09-12T18:52:28.716Z,24.76
2022-09-12T18:54:57.262Z,24.77
2022-09-12T18:57:26.199Z,24.82
2022-09-12T18:59:54.969Z,24.87
2022-09-12T19:02:24.727Z,24.87
2022-09-12T19:04:54.399Z,24.89
2022-09-12T19:07:22.604Z,24.81
2022-09-12T19:09:51.003Z,24.81
2022-09-12T19:12:19.434Z,24.78
2022-09-12T19:14:47.662Z,24.65
2022-09-12T19:17:17.548Z,24.69
2022-09-12T19:19:46.021Z,24.70
2022-09-12T19:22:16.076Z,24.70
2022-09-12T19:24:44.190Z,24.75
2022-09-12T19:27:13.720Z,24.72
2022-09-12T19:29:42.057Z,24.77
2022-09-12T19:32:10.325Z,24.79
2022-09-12T19:34:38.540Z,24.73
2022-09-12T19:37:06.826Z,24.70
2022-09-12T19:39:36.495Z,24.71
2022-09-12T19:42:04.931Z,24.70
2022-09-12T19:44:33.115Z,24.74
2022-09-12T19:47:01.433Z,24.70
2022-09-12T19:49:29.724Z,24.75
2022-09-12T19:51:58.025Z,24.78
2022-09-12T19:54:26.309Z,24.78
2022-09-12T19:56:55.953Z,24.78
2022-09-12T19:59:24.250Z,24.79
2022-09-12T20:01:54.766Z,24.78
2022-09-12T20:04:25.555Z,24.75
2022-09-12T20:06:54.220Z,24.72
2022-09-12T20:09:22.413Z,24.73
2022-09-12T20:11:50.898Z,24.74
2022-09-12T20:14:21.362Z,24.72
2022-09-12T20:16:49.869Z,24.71
2022-09-12T20:19:18.028Z,24.65
2022-09-12T20:21:46.729Z,24.62
2022-09-12T20:24:15.933Z,24.57
2022-09-12T20:26:45.297Z,24.53
2022-09-12T20:29:14.237Z,24.48
2022-09-12T20:31:44.799Z,24.42
2022-09-12T20:34:16.815Z,24.35
2022-09-12T20:36:45.381Z,24.28
2022-09-12T20:39:15.764Z,24.21
2022-09-12T20:41:44.473Z,24.19
2022-09-12T20:44:12.703Z,24.17
2022-09-12T20:46:41.570Z,24.16
2022-09-12T20:49:11.276Z,24.11
2022-09-12T20:51:40.220Z,24.06
2022-09-12T20:54:10.068Z,24.01
2022-09-12T20:56:39.091Z,24.00
2022-09-12T20:59:07.690Z,23.97
2022-09-12T21:01:36.137Z,23.93
2022-09-12T21:04:06.290Z,23.90
2022-09-12T21:06:36.079Z,23.78
2022-09-12T21:09:04.417Z,23.75
2022-09-12T21:11:32.796Z,23.68
2022-09-12T21:14:01.017Z,23.67
2022-09-12T21:16:29.392Z,23.69
2022-09-12T21:18:59.517Z,23.67
2022-09-12T21:21:28.170Z,23.61
2022-09-12T21:24:00.943Z,23.61
2022-09-12T21:26:29.346Z,23.56
2022-09-12T21:28:58.207Z,23.54
2022-09-12T21:31:26.945Z,23.54
2022-09-12T21:33:55.412Z,23.47
2022-09-12T21:36:23.634Z,23.43
2022-09-12T21:38:51.979Z,23.34
2022-09-12T21:41:22.050Z,23.28
2022-09-12T21:43:50.331Z,23.25
2022-09-12T21:46:18.677Z,23.23
2022-09-12T21:48:47.275Z,23.21
2022-09-12T21:51:15.534Z,23.18
2022-09-12T21:53:44.291Z,23.15
2022-09-12T21:56:12.589Z,23.14
2022-09-12T21:58:42.345Z,23.11
2022-09-12T22:01:13.081Z,23.09
2022-09-12T22:03:43.169Z,23.01
2022-09-12T22:06:11.603Z,22.96
2022-09-12T22:08:41.007Z,22.91
2022-09-12T22:11:11.045Z,22.87
2022-09-12T22:13:44.044Z,22.83
2022-09-12T22:16:12.892Z,22.83
2022-09-12T22:18:41.309Z,22.82
2022-09-12T22:21:13.261Z,22.81
2022-09-12T22:23:59.555Z,22.78
2022-09-12T22:26:28.350Z,22.79
2022-09-12T22:28:58.081Z,22.81
2022-09-12T22:31:27.090Z,22.79
2022-09-12T22:33:57.172Z,22.82
2022-09-12T22:36:30.452Z,22.83
2022-09-12T22:39:00.301Z,22.88
2022-09-12T22:41:28.628Z,22.89
2022-09-12T22:43:59.979Z,22.95
2022-09-12T22:46:30.202Z,22.92
2022-09-12T22:48:58.610Z,22.92
2022-09-12T22:51:27.535Z,22.94
2022-09-12T22:53:56.607Z,22.93
2022-09-12T22:56:24.965Z,22.87
2022-09-12T22:58:53.436Z,22.86
2022-09-12T23:01:23.932Z,22.84
2022-09-12T23:03:52.404Z,22.84
2022-09-12T23:06:21.183Z,22.85
2022-09-12T23:08:49.507Z,22.83
2022-09-12T23:11:20.963Z,22.88
2022-09-12T23:13:50.986Z,22.85
2022-09-12T23:16:20.621Z,22.87
2022-09-12T23:18:50.606Z,22.96
2022-09-12T23:21:20.427Z,22.98
2022-09-12T23:23:49.160Z,22.99
2022-09-12T23:26:19.375Z,23.03
2022-09-12T23:28:50.825Z,23.07
2022-09-12T23:31:19.266Z,23.07
2022-09-12T23:33:50.144Z,23.09
2022-09-12T23:36:18.456Z,23.15
2022-09-12T23:38:48.244Z,23.11
2022-09-12T23:41:18.440Z,23.15
2022-09-12T23:43:47.200Z,23.14
2022-09-12T23:46:16.708Z,23.14
2022-09-12T23:48:45.416Z,23.13
2022-09-12T23:51:15.247Z,23.13
2022-09-12T23:53:43.606Z,23.09
2022-09-12T23:56:12.401Z,23.13
2022-09-12T23:58:40.675Z,23.08
